sensor_id;sensor_type;location;lat;lon;timestamp;temperature;humidity
42833;DHT22;28479;51.478;5.692;2022-07-23T00:00:18;16.40;99.90
42833;DHT22;28479;51.478;5.692;2022-07-23T00:02:44;16.40;99.90
42833;DHT22;28479;51.478;5.692;2022-07-23T00:05:10;16.40;99.90
42833;DHT22;28479;51.478;5.692;2022-07-23T00:07:36;16.40;99.90
42833;DHT22;28479;51.478;5.692;2022-07-23T00:10:02;16.30;99.90
42833;DHT22;28479;51.478;5.692;2022-07-23T00:12:28;16.30;99.90
42833;DHT22;28479;51.478;5.692;2022-07-23T00:14:57;16.20;99.90
42833;DHT22;28479;51.478;5.692;2022-07-23T00:17:25;16.20;99.90
42833;DHT22;28479;51.478;5.692;2022-07-23T00:19:51;16.20;99.90
42833;DHT22;28479;51.478;5.692;2022-07-23T00:22:18;16.20;99.90
42833;DHT22;28479;51.478;5.692;2022-07-23T00:24:44;16.20;99.90
42833;DHT22;28479;51.478;5.692;2022-07-23T00:27:10;16.20;99.90
42833;DHT22;28479;51.478;5.692;2022-07-23T00:29:35;16.30;99.90
42833;DHT22;28479;51.478;5.692;2022-07-23T00:32:01;16.40;99.90
42833;DHT22;28479;51.478;5.692;2022-07-23T00:34:27;16.30;99.90
42833;DHT22;28479;51.478;5.692;2022-07-23T00:36:53;16.20;99.90
42833;DHT22;28479;51.478;5.692;2022-07-23T00:39:19;16.10;99.90
42833;DHT22;28479;51.478;5.692;2022-07-23T00:41:46;16.00;99.90
42833;DHT22;28479;51.478;5.692;2022-07-23T00:47:03;15.90;99.90
42833;DHT22;28479;51.478;5.692;2022-07-23T00:49:31;16.00;99.90
42833;DHT22;28479;51.478;5.692;2022-07-23T00:51:57;16.10;99.90
42833;DHT22;28479;51.478;5.692;2022-07-23T00:54:27;16.20;99.90
42833;DHT22;28479;51.478;5.692;2022-07-23T00:56:53;16.30;99.90
42833;DHT22;28479;51.478;5.692;2022-07-23T00:59:18;16.30;99.90
42833;DHT22;28479;51.478;5.692;2022-07-23T01:01:44;16.20;99.90
42833;DHT22;28479;51.478;5.692;2022-07-23T01:04:12;16.20;99.90
42833;DHT22;28479;51.478;5.692;2022-07-23T01:06:38;16.10;99.90
42833;DHT22;28479;51.478;5.692;2022-07-23T01:09:05;16.00;99.90
42833;DHT22;28479;51.478;5.692;2022-07-23T01:11:36;15.90;99.90
42833;DHT22;28479;51.478;5.692;2022-07-23T01:14:17;15.80;99.90
42833;DHT22;28479;51.478;5.692;2022-07-23T01:16:46;15.60;99.90
42833;DHT22;28479;51.478;5.692;2022-07-23T01:19:12;15.50;99.90
42833;DHT22;28479;51.478;5.692;2022-07-23T01:21:40;15.40;99.90
42833;DHT22;28479;51.478;5.692;2022-07-23T01:24:07;15.40;99.90
42833;DHT22;28479;51.478;5.692;2022-07-23T01:26:33;15.40;99.90
42833;DHT22;28479;51.478;5.692;2022-07-23T01:28:58;15.30;99.90
42833;DHT22;28479;51.478;5.692;2022-07-23T01:31:25;15.20;99.90
42833;DHT22;28479;51.478;5.692;2022-07-23T01:33:53;15.20;99.90
42833;DHT22;28479;51.478;5.692;2022-07-23T01:36:25;15.20;99.90
42833;DHT22;28479;51.478;5.692;2022-07-23T01:38:51;15.20;99.90
42833;DHT22;28479;51.478;5.692;2022-07-23T01:41:17;15.20;99.90
42833;DHT22;28479;51.478;5.692;2022-07-23T01:43:42;15.10;99.90
42833;DHT22;28479;51.478;5.692;2022-07-23T01:46:08;15.10;99.90
42833;DHT22;28479;51.478;5.692;2022-07-23T01:48:34;15.20;99.90
42833;DHT22;28479;51.478;5.692;2022-07-23T01:51:00;15.20;99.90
42833;DHT22;28479;51.478;5.692;2022-07-23T01:53:26;15.20;99.90
42833;DHT22;28479;51.478;5.692;2022-07-23T01:55:51;15.20;99.90
42833;DHT22;28479;51.478;5.692;2022-07-23T01:58:17;15.20;99.90
42833;DHT22;28479;51.478;5.692;2022-07-23T02:00:42;15.20;99.90
42833;DHT22;28479;51.478;5.692;2022-07-23T02:03:08;15.20;99.90
42833;DHT22;28479;51.478;5.692;2022-07-23T02:05:34;15.20;99.90
42833;DHT22;28479;51.478;5.692;2022-07-23T02:08:00;15.20;99.90
42833;DHT22;28479;51.478;5.692;2022-07-23T02:10:26;15.20;99.90
42833;DHT22;28479;51.478;5.692;2022-07-23T02:12:53;15.10;99.90
42833;DHT22;28479;51.478;5.692;2022-07-23T02:15:19;15.10;99.90
42833;DHT22;28479;51.478;5.692;2022-07-23T02:17:45;15.10;99.90
42833;DHT22;28479;51.478;5.692;2022-07-23T02:20:11;15.00;99.90
42833;DHT22;28479;51.478;5.692;2022-07-23T02:22:37;15.00;99.90
42833;DHT22;28479;51.478;5.692;2022-07-23T02:25:04;15.00;99.90
42833;DHT22;28479;51.478;5.692;2022-07-23T02:27:30;15.00;99.90
42833;DHT22;28479;51.478;5.692;2022-07-23T02:29:56;15.00;99.90
42833;DHT22;28479;51.478;5.692;2022-07-23T02:32:27;14.90;99.90
42833;DHT22;28479;51.478;5.692;2022-07-23T02:34:52;14.90;99.90
42833;DHT22;28479;51.478;5.692;2022-07-23T02:37:18;14.90;99.90
42833;DHT22;28479;51.478;5.692;2022-07-23T02:39:44;14.90;99.90
42833;DHT22;28479;51.478;5.692;2022-07-23T02:42:09;14.90;99.90
42833;DHT22;28479;51.478;5.692;2022-07-23T02:44:35;14.90;99.90
42833;DHT22;28479;51.478;5.692;2022-07-23T02:47:01;14.80;99.90
42833;DHT22;28479;51.478;5.692;2022-07-23T02:49:29;14.80;99.90
42833;DHT22;28479;51.478;5.692;2022-07-23T02:51:55;14.80;99.90
42833;DHT22;28479;51.478;5.692;2022-07-23T02:54:20;14.80;99.90
42833;DHT22;28479;51.478;5.692;2022-07-23T02:56:46;14.60;99.90
42833;DHT22;28479;51.478;5.692;2022-07-23T02:59:12;14.50;99.90
42833;DHT22;28479;51.478;5.692;2022-07-23T03:01:37;14.50;99.90
42833;DHT22;28479;51.478;5.692;2022-07-23T03:04:03;14.60;99.90
42833;DHT22;28479;51.478;5.692;2022-07-23T03:06:29;14.60;99.90
42833;DHT22;28479;51.478;5.692;2022-07-23T03:08:57;14.60;99.90
42833;DHT22;28479;51.478;5.692;2022-07-23T03:11:25;14.50;99.90
42833;DHT22;28479;51.478;5.692;2022-07-23T03:13:51;14.50;99.90
42833;DHT22;28479;51.478;5.692;2022-07-23T03:16:17;14.50;99.90
42833;DHT22;28479;51.478;5.692;2022-07-23T03:18:42;14.40;99.90
42833;DHT22;28479;51.478;5.692;2022-07-23T03:21:10;14.50;99.90
42833;DHT22;28479;51.478;5.692;2022-07-23T03:23:36;14.60;99.90
42833;DHT22;28479;51.478;5.692;2022-07-23T03:26:04;14.50;99.90
42833;DHT22;28479;51.478;5.692;2022-07-23T03:28:30;14.60;99.90
42833;DHT22;28479;51.478;5.692;2022-07-23T03:30:56;14.50;99.90
42833;DHT22;28479;51.478;5.692;2022-07-23T03:33:25;14.30;99.90
42833;DHT22;28479;51.478;5.692;2022-07-23T03:35:52;14.30;99.90
42833;DHT22;28479;51.478;5.692;2022-07-23T03:38:18;14.30;99.90
42833;DHT22;28479;51.478;5.692;2022-07-23T03:40:44;14.30;99.90
42833;DHT22;28479;51.478;5.692;2022-07-23T03:43:10;14.30;99.90
42833;DHT22;28479;51.478;5.692;2022-07-23T03:45:35;14.30;99.90
42833;DHT22;28479;51.478;5.692;2022-07-23T03:48:01;14.20;99.90
42833;DHT22;28479;51.478;5.692;2022-07-23T03:50:27;14.30;99.90
42833;DHT22;28479;51.478;5.692;2022-07-23T03:52:52;14.30;99.90
42833;DHT22;28479;51.478;5.692;2022-07-23T03:55:19;14.20;99.90
42833;DHT22;28479;51.478;5.692;2022-07-23T03:57:45;14.20;99.90
42833;DHT22;28479;51.478;5.692;2022-07-23T04:00:13;14.20;99.90
42833;DHT22;28479;51.478;5.692;2022-07-23T04:02:40;14.20;99.90
42833;DHT22;28479;51.478;5.692;2022-07-23T04:05:06;14.20;99.90
42833;DHT22;28479;51.478;5.692;2022-07-23T04:07:32;14.20;99.90
42833;DHT22;28479;51.478;5.692;2022-07-23T04:09:57;14.10;99.90
42833;DHT22;28479;51.478;5.692;2022-07-23T04:12:24;14.10;99.90
42833;DHT22;28479;51.478;5.692;2022-07-23T04:14:49;14.20;99.90
42833;DHT22;28479;51.478;5.692;2022-07-23T04:17:15;14.20;99.90
42833;DHT22;28479;51.478;5.692;2022-07-23T04:19:41;14.20;99.90
42833;DHT22;28479;51.478;5.692;2022-07-23T04:22:09;14.30;99.90
42833;DHT22;28479;51.478;5.692;2022-07-23T04:24:35;14.30;99.90
42833;DHT22;28479;51.478;5.692;2022-07-23T04:27:01;14.40;99.90
42833;DHT22;28479;51.478;5.692;2022-07-23T04:29:27;14.40;99.90
42833;DHT22;28479;51.478;5.692;2022-07-23T04:31:52;14.40;99.90
42833;DHT22;28479;51.478;5.692;2022-07-23T04:34:18;14.40;99.90
42833;DHT22;28479;51.478;5.692;2022-07-23T04:36:44;14.30;99.90
42833;DHT22;28479;51.478;5.692;2022-07-23T04:39:10;14.30;99.90
42833;DHT22;28479;51.478;5.692;2022-07-23T04:41:36;14.30;99.90
42833;DHT22;28479;51.478;5.692;2022-07-23T04:44:02;14.40;99.90
42833;DHT22;28479;51.478;5.692;2022-07-23T04:46:29;14.30;99.90
42833;DHT22;28479;51.478;5.692;2022-07-23T04:48:57;14.30;99.90
42833;DHT22;28479;51.478;5.692;2022-07-23T04:51:25;14.30;99.90
42833;DHT22;28479;51.478;5.692;2022-07-23T04:53:51;14.40;99.90
42833;DHT22;28479;51.478;5.692;2022-07-23T04:56:17;14.40;99.90
42833;DHT22;28479;51.478;5.692;2022-07-23T04:58:42;14.50;99.90
42833;DHT22;28479;51.478;5.692;2022-07-23T05:01:08;14.50;99.90
42833;DHT22;28479;51.478;5.692;2022-07-23T05:03:34;14.50;99.90
42833;DHT22;28479;51.478;5.692;2022-07-23T05:06:00;14.60;99.90
42833;DHT22;28479;51.478;5.692;2022-07-23T05:08:26;14.60;99.90
42833;DHT22;28479;51.478;5.692;2022-07-23T05:10:52;14.60;99.90
42833;DHT22;28479;51.478;5.692;2022-07-23T05:13:18;14.70;99.90
42833;DHT22;28479;51.478;5.692;2022-07-23T05:15:44;14.70;99.90
42833;DHT22;28479;51.478;5.692;2022-07-23T05:18:10;14.70;99.90
42833;DHT22;28479;51.478;5.692;2022-07-23T05:20:36;14.70;99.90
42833;DHT22;28479;51.478;5.692;2022-07-23T05:23:02;14.80;99.90
42833;DHT22;28479;51.478;5.692;2022-07-23T05:25:27;14.80;99.90
42833;DHT22;28479;51.478;5.692;2022-07-23T05:27:53;14.90;99.90
42833;DHT22;28479;51.478;5.692;2022-07-23T05:30:19;15.00;99.90
42833;DHT22;28479;51.478;5.692;2022-07-23T05:32:44;15.10;99.90
42833;DHT22;28479;51.478;5.692;2022-07-23T05:35:10;15.10;99.90
42833;DHT22;28479;51.478;5.692;2022-07-23T05:37:36;15.10;99.90
42833;DHT22;28479;51.478;5.692;2022-07-23T05:40:07;15.20;99.90
42833;DHT22;28479;51.478;5.692;2022-07-23T05:42:34;15.30;99.90
42833;DHT22;28479;51.478;5.692;2022-07-23T05:45:00;15.30;99.90
42833;DHT22;28479;51.478;5.692;2022-07-23T05:47:26;15.40;99.90
42833;DHT22;28479;51.478;5.692;2022-07-23T05:49:51;15.50;99.90
42833;DHT22;28479;51.478;5.692;2022-07-23T05:52:17;15.60;99.90
42833;DHT22;28479;51.478;5.692;2022-07-23T05:54:43;15.80;99.90
42833;DHT22;28479;51.478;5.692;2022-07-23T05:57:08;15.80;99.90
42833;DHT22;28479;51.478;5.692;2022-07-23T05:59:34;15.90;99.90
42833;DHT22;28479;51.478;5.692;2022-07-23T06:02:00;15.90;99.90
42833;DHT22;28479;51.478;5.692;2022-07-23T06:04:25;16.10;99.90
42833;DHT22;28479;51.478;5.692;2022-07-23T06:06:51;16.20;99.90
42833;DHT22;28479;51.478;5.692;2022-07-23T06:09:17;16.20;99.90
42833;DHT22;28479;51.478;5.692;2022-07-23T06:11:43;16.30;99.90
42833;DHT22;28479;51.478;5.692;2022-07-23T06:14:09;16.40;99.90
42833;DHT22;28479;51.478;5.692;2022-07-23T06:16:34;16.50;99.90
42833;DHT22;28479;51.478;5.692;2022-07-23T06:19:00;16.60;99.90
42833;DHT22;28479;51.478;5.692;2022-07-23T06:21:25;16.60;99.90
42833;DHT22;28479;51.478;5.692;2022-07-23T06:23:51;16.70;99.90
42833;DHT22;28479;51.478;5.692;2022-07-23T06:26:17;16.80;99.90
42833;DHT22;28479;51.478;5.692;2022-07-23T06:28:42;16.90;99.90
42833;DHT22;28479;51.478;5.692;2022-07-23T06:31:08;16.90;99.90
42833;DHT22;28479;51.478;5.692;2022-07-23T06:33:34;17.00;99.90
42833;DHT22;28479;51.478;5.692;2022-07-23T06:35:59;17.00;99.90
42833;DHT22;28479;51.478;5.692;2022-07-23T06:38:28;17.10;99.90
42833;DHT22;28479;51.478;5.692;2022-07-23T06:40:56;17.20;99.90
42833;DHT22;28479;51.478;5.692;2022-07-23T06:43:24;17.30;99.90
42833;DHT22;28479;51.478;5.692;2022-07-23T06:45:50;17.30;99.90
42833;DHT22;28479;51.478;5.692;2022-07-23T06:48:15;17.40;99.90
42833;DHT22;28479;51.478;5.692;2022-07-23T06:50:41;17.40;99.90
42833;DHT22;28479;51.478;5.692;2022-07-23T06:53:07;17.50;99.90
42833;DHT22;28479;51.478;5.692;2022-07-23T06:55:32;17.60;99.90
42833;DHT22;28479;51.478;5.692;2022-07-23T06:58:00;17.70;99.90
42833;DHT22;28479;51.478;5.692;2022-07-23T07:00:26;17.80;99.90
42833;DHT22;28479;51.478;5.692;2022-07-23T07:02:53;17.80;99.90
42833;DHT22;28479;51.478;5.692;2022-07-23T07:05:19;17.80;99.90
42833;DHT22;28479;51.478;5.692;2022-07-23T07:07:45;17.90;99.90
42833;DHT22;28479;51.478;5.692;2022-07-23T07:10:10;17.90;99.90
42833;DHT22;28479;51.478;5.692;2022-07-23T07:12:36;18.00;99.90
42833;DHT22;28479;51.478;5.692;2022-07-23T07:15:02;18.00;99.90
42833;DHT22;28479;51.478;5.692;2022-07-23T07:17:27;18.10;99.90
42833;DHT22;28479;51.478;5.692;2022-07-23T07:19:53;18.10;99.90
42833;DHT22;28479;51.478;5.692;2022-07-23T07:22:19;18.10;99.90
42833;DHT22;28479;51.478;5.692;2022-07-23T07:24:44;18.20;99.90
42833;DHT22;28479;51.478;5.692;2022-07-23T07:27:13;18.30;99.90
42833;DHT22;28479;51.478;5.692;2022-07-23T07:29:39;18.40;99.90
42833;DHT22;28479;51.478;5.692;2022-07-23T07:32:04;18.40;99.90
42833;DHT22;28479;51.478;5.692;2022-07-23T07:34:30;18.50;99.90
42833;DHT22;28479;51.478;5.692;2022-07-23T07:36:56;18.50;99.90
42833;DHT22;28479;51.478;5.692;2022-07-23T07:39:21;18.60;99.90
42833;DHT22;28479;51.478;5.692;2022-07-23T07:41:47;18.60;99.90
42833;DHT22;28479;51.478;5.692;2022-07-23T07:44:12;18.60;99.90
42833;DHT22;28479;51.478;5.692;2022-07-23T07:46:38;18.70;99.90
42833;DHT22;28479;51.478;5.692;2022-07-23T07:49:04;18.80;99.90
42833;DHT22;28479;51.478;5.692;2022-07-23T07:51:29;18.90;99.90
42833;DHT22;28479;51.478;5.692;2022-07-23T07:53:56;19.00;99.90
42833;DHT22;28479;51.478;5.692;2022-07-23T07:56:21;19.00;99.90
42833;DHT22;28479;51.478;5.692;2022-07-23T07:58:47;19.00;99.90
42833;DHT22;28479;51.478;5.692;2022-07-23T08:01:12;19.00;99.90
42833;DHT22;28479;51.478;5.692;2022-07-23T08:03:38;19.10;99.90
42833;DHT22;28479;51.478;5.692;2022-07-23T08:06:04;19.10;99.90
42833;DHT22;28479;51.478;5.692;2022-07-23T08:08:29;19.20;99.90
42833;DHT22;28479;51.478;5.692;2022-07-23T08:10:58;19.30;99.90
42833;DHT22;28479;51.478;5.692;2022-07-23T08:13:23;19.30;99.90
42833;DHT22;28479;51.478;5.692;2022-07-23T08:15:49;19.30;99.90
42833;DHT22;28479;51.478;5.692;2022-07-23T08:18:14;19.40;99.90
42833;DHT22;28479;51.478;5.692;2022-07-23T08:20:40;19.50;99.90
42833;DHT22;28479;51.478;5.692;2022-07-23T08:23:07;19.50;99.90
42833;DHT22;28479;51.478;5.692;2022-07-23T08:25:34;19.60;99.90
42833;DHT22;28479;51.478;5.692;2022-07-23T08:28:02;19.60;99.90
42833;DHT22;28479;51.478;5.692;2022-07-23T08:30:29;19.50;99.90
42833;DHT22;28479;51.478;5.692;2022-07-23T08:33:06;19.60;99.90
42833;DHT22;28479;51.478;5.692;2022-07-23T08:35:44;19.60;99.90
42833;DHT22;28479;51.478;5.692;2022-07-23T08:38:13;19.60;99.90
42833;DHT22;28479;51.478;5.692;2022-07-23T08:40:41;19.70;99.90
42833;DHT22;28479;51.478;5.692;2022-07-23T08:43:15;19.70;99.90
42833;DHT22;28479;51.478;5.692;2022-07-23T08:45:47;19.70;99.90
42833;DHT22;28479;51.478;5.692;2022-07-23T08:48:18;19.80;99.90
42833;DHT22;28479;51.478;5.692;2022-07-23T08:50:49;19.80;99.90
42833;DHT22;28479;51.478;5.692;2022-07-23T08:53:17;20.00;99.90
42833;DHT22;28479;51.478;5.692;2022-07-23T08:55:44;20.00;99.90
42833;DHT22;28479;51.478;5.692;2022-07-23T08:58:11;20.00;99.90
42833;DHT22;28479;51.478;5.692;2022-07-23T09:00:37;20.20;99.90
42833;DHT22;28479;51.478;5.692;2022-07-23T09:03:02;20.40;99.90
42833;DHT22;28479;51.478;5.692;2022-07-23T09:05:28;20.70;99.90
42833;DHT22;28479;51.478;5.692;2022-07-23T09:08:11;20.80;99.90
42833;DHT22;28479;51.478;5.692;2022-07-23T09:16:25;20.90;99.90
42833;DHT22;28479;51.478;5.692;2022-07-23T09:18:52;21.00;99.90
42833;DHT22;28479;51.478;5.692;2022-07-23T09:26:36;21.00;99.90
42833;DHT22;28479;51.478;5.692;2022-07-23T09:29:25;20.90;99.90
42833;DHT22;28479;51.478;5.692;2022-07-23T09:31:55;20.80;99.90
42833;DHT22;28479;51.478;5.692;2022-07-23T09:34:30;20.80;99.90
42833;DHT22;28479;51.478;5.692;2022-07-23T09:37:11;21.00;99.90
42833;DHT22;28479;51.478;5.692;2022-07-23T09:39:39;21.00;99.90
42833;DHT22;28479;51.478;5.692;2022-07-23T09:44:53;21.30;99.90
42833;DHT22;28479;51.478;5.692;2022-07-23T09:47:20;21.40;99.90
42833;DHT22;28479;51.478;5.692;2022-07-23T09:50:08;21.40;99.90
42833;DHT22;28479;51.478;5.692;2022-07-23T09:52:46;21.50;99.90
42833;DHT22;28479;51.478;5.692;2022-07-23T09:55:16;21.40;99.90
42833;DHT22;28479;51.478;5.692;2022-07-23T09:57:42;21.40;99.90
42833;DHT22;28479;51.478;5.692;2022-07-23T10:00:11;21.60;99.90
42833;DHT22;28479;51.478;5.692;2022-07-23T10:02:39;21.60;99.90
42833;DHT22;28479;51.478;5.692;2022-07-23T10:05:05;21.70;99.90
42833;DHT22;28479;51.478;5.692;2022-07-23T10:07:33;21.80;99.90
42833;DHT22;28479;51.478;5.692;2022-07-23T10:10:01;21.70;99.90
42833;DHT22;28479;51.478;5.692;2022-07-23T10:12:27;21.90;99.90
42833;DHT22;28479;51.478;5.692;2022-07-23T10:14:59;21.90;99.90
42833;DHT22;28479;51.478;5.692;2022-07-23T10:17:33;22.10;99.90
42833;DHT22;28479;51.478;5.692;2022-07-23T10:19:59;22.10;99.90
42833;DHT22;28479;51.478;5.692;2022-07-23T10:22:37;22.10;99.90
42833;DHT22;28479;51.478;5.692;2022-07-23T10:25:32;22.10;99.90
42833;DHT22;28479;51.478;5.692;2022-07-23T10:28:33;22.00;99.90
42833;DHT22;28479;51.478;5.692;2022-07-23T10:33:48;22.30;99.90
42833;DHT22;28479;51.478;5.692;2022-07-23T10:36:27;22.20;99.90
42833;DHT22;28479;51.478;5.692;2022-07-23T10:41:36;22.30;99.90
42833;DHT22;28479;51.478;5.692;2022-07-23T10:44:18;22.40;99.90
42833;DHT22;28479;51.478;5.692;2022-07-23T10:47:04;22.50;99.90
42833;DHT22;28479;51.478;5.692;2022-07-23T10:49:42;22.60;99.90
42833;DHT22;28479;51.478;5.692;2022-07-23T10:57:07;22.80;99.20
42833;DHT22;28479;51.478;5.692;2022-07-23T11:02:38;22.90;99.90
42833;DHT22;28479;51.478;5.692;2022-07-23T11:05:15;22.90;99.80
42833;DHT22;28479;51.478;5.692;2022-07-23T11:08:17;22.80;99.40
42833;DHT22;28479;51.478;5.692;2022-07-23T11:13:48;23.00;99.90
42833;DHT22;28479;51.478;5.692;2022-07-23T11:16:23;23.00;99.60
42833;DHT22;28479;51.478;5.692;2022-07-23T11:18:57;22.90;99.30
42833;DHT22;28479;51.478;5.692;2022-07-23T11:32:05;23.50;99.40
42833;DHT22;28479;51.478;5.692;2022-07-23T11:34:41;23.60;99.80
42833;DHT22;28479;51.478;5.692;2022-07-23T11:37:09;23.80;99.90
42833;DHT22;28479;51.478;5.692;2022-07-23T11:39:35;23.80;99.90
42833;DHT22;28479;51.478;5.692;2022-07-23T11:42:03;23.50;99.90
42833;DHT22;28479;51.478;5.692;2022-07-23T11:44:32;23.20;99.70
42833;DHT22;28479;51.478;5.692;2022-07-23T11:47:04;23.30;99.90
42833;DHT22;28479;51.478;5.692;2022-07-23T11:49:30;23.60;99.90
42833;DHT22;28479;51.478;5.692;2022-07-23T11:52:11;23.70;99.90
42833;DHT22;28479;51.478;5.692;2022-07-23T11:54:53;23.80;99.90
42833;DHT22;28479;51.478;5.692;2022-07-23T11:57:23;23.90;99.90
42833;DHT22;28479;51.478;5.692;2022-07-23T11:59:52;23.80;99.90
42833;DHT22;28479;51.478;5.692;2022-07-23T12:02:19;23.80;99.90
42833;DHT22;28479;51.478;5.692;2022-07-23T12:04:48;24.00;99.90
42833;DHT22;28479;51.478;5.692;2022-07-23T12:07:36;24.20;99.90
42833;DHT22;28479;51.478;5.692;2022-07-23T12:10:08;24.40;99.90
42833;DHT22;28479;51.478;5.692;2022-07-23T12:12:41;24.50;99.90
42833;DHT22;28479;51.478;5.692;2022-07-23T12:15:08;24.40;98.80
42833;DHT22;28479;51.478;5.692;2022-07-23T12:17:36;24.30;98.00
42833;DHT22;28479;51.478;5.692;2022-07-23T12:20:24;24.30;97.90
42833;DHT22;28479;51.478;5.692;2022-07-23T12:22:55;24.30;97.80
42833;DHT22;28479;51.478;5.692;2022-07-23T12:25:26;24.30;97.10
42833;DHT22;28479;51.478;5.692;2022-07-23T12:28:12;24.30;97.80
42833;DHT22;28479;51.478;5.692;2022-07-23T12:30:44;24.50;97.70
42833;DHT22;28479;51.478;5.692;2022-07-23T12:33:15;24.70;97.80
42833;DHT22;28479;51.478;5.692;2022-07-23T12:35:47;24.80;97.80
42833;DHT22;28479;51.478;5.692;2022-07-23T12:38:20;24.80;97.90
42833;DHT22;28479;51.478;5.692;2022-07-23T12:40:57;24.80;98.00
42833;DHT22;28479;51.478;5.692;2022-07-23T12:43:30;24.80;97.70
42833;DHT22;28479;51.478;5.692;2022-07-23T12:46:06;24.90;98.20
42833;DHT22;28479;51.478;5.692;2022-07-23T12:48:35;25.10;97.30
42833;DHT22;28479;51.478;5.692;2022-07-23T12:51:04;25.40;98.40
42833;DHT22;28479;51.478;5.692;2022-07-23T12:58:58;25.60;96.20
42833;DHT22;28479;51.478;5.692;2022-07-23T13:01:28;25.70;96.90
42833;DHT22;28479;51.478;5.692;2022-07-23T13:04:07;25.90;96.50
42833;DHT22;28479;51.478;5.692;2022-07-23T13:06:35;26.10;95.70
42833;DHT22;28479;51.478;5.692;2022-07-23T13:09:02;26.30;95.20
42833;DHT22;28479;51.478;5.692;2022-07-23T13:11:28;26.20;95.10
42833;DHT22;28479;51.478;5.692;2022-07-23T13:13:57;26.00;95.30
42833;DHT22;28479;51.478;5.692;2022-07-23T13:16:23;26.20;95.70
42833;DHT22;28479;51.478;5.692;2022-07-23T13:18:48;26.20;94.60
42833;DHT22;28479;51.478;5.692;2022-07-23T13:21:14;26.30;94.90
42833;DHT22;28479;51.478;5.692;2022-07-23T13:23:41;26.70;95.30
42833;DHT22;28479;51.478;5.692;2022-07-23T13:26:07;27.20;95.80
42833;DHT22;28479;51.478;5.692;2022-07-23T13:28:32;27.80;94.40
42833;DHT22;28479;51.478;5.692;2022-07-23T13:30:58;27.70;93.80
42833;DHT22;28479;51.478;5.692;2022-07-23T13:33:24;27.80;94.40
42833;DHT22;28479;51.478;5.692;2022-07-23T13:35:51;27.60;94.10
42833;DHT22;28479;51.478;5.692;2022-07-23T13:38:17;27.60;93.70
42833;DHT22;28479;51.478;5.692;2022-07-23T13:40:46;27.20;93.00
42833;DHT22;28479;51.478;5.692;2022-07-23T13:43:13;27.40;94.10
42833;DHT22;28479;51.478;5.692;2022-07-23T13:45:40;27.50;93.60
42833;DHT22;28479;51.478;5.692;2022-07-23T13:48:08;27.60;93.10
42833;DHT22;28479;51.478;5.692;2022-07-23T13:50:35;27.30;93.00
42833;DHT22;28479;51.478;5.692;2022-07-23T13:53:07;26.90;93.30
42833;DHT22;28479;51.478;5.692;2022-07-23T13:55:33;26.80;93.70
42833;DHT22;28479;51.478;5.692;2022-07-23T13:57:59;27.00;93.70
42833;DHT22;28479;51.478;5.692;2022-07-23T14:00:27;27.00;93.30
42833;DHT22;28479;51.478;5.692;2022-07-23T14:02:53;26.80;93.50
42833;DHT22;28479;51.478;5.692;2022-07-23T14:05:18;26.60;93.50
42833;DHT22;28479;51.478;5.692;2022-07-23T14:07:44;26.80;94.40
42833;DHT22;28479;51.478;5.692;2022-07-23T14:10:12;26.80;93.30
42833;DHT22;28479;51.478;5.692;2022-07-23T14:12:38;26.60;93.70
42833;DHT22;28479;51.478;5.692;2022-07-23T14:15:05;26.60;94.10
42833;DHT22;28479;51.478;5.692;2022-07-23T14:17:33;26.70;94.10
42833;DHT22;28479;51.478;5.692;2022-07-23T14:19:59;26.90;94.10
42833;DHT22;28479;51.478;5.692;2022-07-23T14:22:25;27.40;93.00
42833;DHT22;28479;51.478;5.692;2022-07-23T14:24:51;27.60;93.10
42833;DHT22;28479;51.478;5.692;2022-07-23T14:27:16;27.40;92.80
42833;DHT22;28479;51.478;5.692;2022-07-23T14:29:45;27.70;93.10
42833;DHT22;28479;51.478;5.692;2022-07-23T14:32:11;28.00;92.60
42833;DHT22;28479;51.478;5.692;2022-07-23T14:34:36;27.80;92.30
42833;DHT22;28479;51.478;5.692;2022-07-23T14:37:02;27.40;92.20
42833;DHT22;28479;51.478;5.692;2022-07-23T14:39:28;27.30;92.70
42833;DHT22;28479;51.478;5.692;2022-07-23T14:41:56;27.10;92.60
42833;DHT22;28479;51.478;5.692;2022-07-23T14:44:25;27.20;92.40
42833;DHT22;28479;51.478;5.692;2022-07-23T14:46:51;27.60;92.80
42833;DHT22;28479;51.478;5.692;2022-07-23T14:49:18;28.40;93.70
42833;DHT22;28479;51.478;5.692;2022-07-23T14:51:43;29.10;92.10
42833;DHT22;28479;51.478;5.692;2022-07-23T14:54:10;29.40;91.80
42833;DHT22;28479;51.478;5.692;2022-07-23T14:56:36;29.40;91.40
42833;DHT22;28479;51.478;5.692;2022-07-23T14:59:04;29.60;91.70
42833;DHT22;28479;51.478;5.692;2022-07-23T15:01:30;28.80;91.00
42833;DHT22;28479;51.478;5.692;2022-07-23T15:03:56;28.60;91.40
42833;DHT22;28479;51.478;5.692;2022-07-23T15:06:21;28.50;91.50
42833;DHT22;28479;51.478;5.692;2022-07-23T15:08:47;28.90;92.20
42833;DHT22;28479;51.478;5.692;2022-07-23T15:11:12;29.50;91.00
42833;DHT22;28479;51.478;5.692;2022-07-23T15:13:38;29.20;91.00
42833;DHT22;28479;51.478;5.692;2022-07-23T15:16:04;28.90;90.40
42833;DHT22;28479;51.478;5.692;2022-07-23T15:18:30;29.30;90.80
42833;DHT22;28479;51.478;5.692;2022-07-23T15:20:56;29.40;89.90
42833;DHT22;28479;51.478;5.692;2022-07-23T15:23:25;29.30;90.50
42833;DHT22;28479;51.478;5.692;2022-07-23T15:25:50;29.30;90.00
42833;DHT22;28479;51.478;5.692;2022-07-23T15:28:16;29.30;89.70
42833;DHT22;28479;51.478;5.692;2022-07-23T15:30:41;29.50;90.00
42833;DHT22;28479;51.478;5.692;2022-07-23T15:33:07;29.40;89.70
42833;DHT22;28479;51.478;5.692;2022-07-23T15:35:33;29.40;88.70
42833;DHT22;28479;51.478;5.692;2022-07-23T15:37:58;29.10;89.00
42833;DHT22;28479;51.478;5.692;2022-07-23T15:40:24;29.10;90.10
42833;DHT22;28479;51.478;5.692;2022-07-23T15:42:50;28.90;89.30
42833;DHT22;28479;51.478;5.692;2022-07-23T15:45:16;28.50;90.20
42833;DHT22;28479;51.478;5.692;2022-07-23T15:47:42;28.00;90.00
42833;DHT22;28479;51.478;5.692;2022-07-23T15:50:10;28.00;91.50
42833;DHT22;28479;51.478;5.692;2022-07-23T15:52:36;28.30;91.40
42833;DHT22;28479;51.478;5.692;2022-07-23T15:55:02;28.60;91.10
42833;DHT22;28479;51.478;5.692;2022-07-23T15:57:28;28.80;90.20
42833;DHT22;28479;51.478;5.692;2022-07-23T15:59:53;29.20;89.90
42833;DHT22;28479;51.478;5.692;2022-07-23T16:02:22;28.90;89.80
42833;DHT22;28479;51.478;5.692;2022-07-23T16:04:50;28.60;90.30
42833;DHT22;28479;51.478;5.692;2022-07-23T16:07:20;28.30;89.90
42833;DHT22;28479;51.478;5.692;2022-07-23T16:09:46;28.20;90.40
42833;DHT22;28479;51.478;5.692;2022-07-23T16:12:12;28.20;90.20
42833;DHT22;28479;51.478;5.692;2022-07-23T16:14:37;28.20;91.00
42833;DHT22;28479;51.478;5.692;2022-07-23T16:17:03;28.60;90.30
42833;DHT22;28479;51.478;5.692;2022-07-23T16:19:29;28.60;90.10
42833;DHT22;28479;51.478;5.692;2022-07-23T16:21:55;28.70;90.70